createdAt,value
2023-05-19T00:04:29.050Z,2.80
2023-05-19T00:06:56.948Z,2.28
2023-05-19T00:14:32.040Z,3.60
2023-05-19T00:17:02.106Z,3.53
2023-05-19T00:19:32.478Z,3.30
2023-05-19T00:21:59.388Z,2.80
2023-05-19T00:24:26.115Z,2.78
2023-05-19T00:26:52.871Z,2.75
2023-05-19T00:29:19.615Z,3.00
2023-05-19T00:31:46.468Z,2.90
2023-05-19T00:34:13.245Z,2.90
2023-05-19T00:36:39.988Z,3.10
2023-05-19T00:39:06.697Z,3.00
2023-05-19T00:41:33.426Z,2.90
2023-05-19T00:44:00.113Z,3.03
2023-05-19T00:46:27.017Z,3.28
2023-05-19T00:48:53.701Z,3.40
2023-05-19T00:51:20.440Z,3.17
2023-05-19T00:53:49.525Z,3.08
2023-05-19T00:56:17.131Z,2.60
2023-05-19T00:58:44.545Z,3.75
2023-05-19T01:01:14.674Z,3.28
2023-05-19T01:03:43.152Z,3.97
2023-05-19T01:06:10.054Z,4.05
2023-05-19T01:08:38.581Z,4.00
2023-05-19T01:11:07.031Z,3.42
2023-05-19T01:13:35.443Z,3.70
2023-05-19T01:16:09.219Z,3.70
2023-05-19T01:18:51.175Z,3.55
2023-05-19T01:21:31.522Z,3.97
2023-05-19T01:24:14.509Z,3.55
2023-05-19T01:27:05.961Z,3.45
2023-05-19T01:29:45.353Z,4.07
2023-05-19T01:32:12.280Z,3.83
2023-05-19T01:34:45.653Z,3.57
2023-05-19T01:37:14.493Z,4.05
2023-05-19T01:39:42.879Z,3.97
2023-05-19T01:42:09.781Z,3.53
2023-05-19T01:44:36.936Z,4.15
2023-05-19T01:47:04.332Z,4.30
2023-05-19T01:49:31.026Z,4.03
2023-05-19T01:51:57.857Z,4.10
2023-05-19T01:54:24.504Z,3.50
2023-05-19T01:56:57.001Z,4.13
2023-05-19T01:59:45.458Z,4.25
2023-05-19T02:02:39.310Z,4.50
2023-05-19T02:05:40.505Z,3.97
2023-05-19T02:08:35.627Z,3.85
2023-05-19T02:11:08.466Z,3.83
2023-05-19T02:13:38.122Z,4.53
2023-05-19T02:16:06.237Z,4.60
2023-05-19T02:18:33.653Z,4.75
2023-05-19T02:21:00.281Z,4.35
2023-05-19T02:23:26.980Z,4.40
2023-05-19T02:25:53.721Z,4.95
2023-05-19T02:28:20.415Z,4.97
2023-05-19T02:30:47.032Z,4.60
2023-05-19T02:33:13.710Z,4.13
2023-05-19T02:35:40.986Z,4.22
2023-05-19T02:38:07.690Z,5.05
2023-05-19T02:40:34.507Z,4.40
2023-05-19T02:43:01.856Z,4.47
2023-05-19T02:45:28.929Z,4.93
2023-05-19T02:47:55.740Z,4.97
2023-05-19T02:50:22.740Z,4.75
2023-05-19T02:52:49.409Z,4.90
2023-05-19T02:55:17.857Z,5.00
2023-05-19T02:57:44.562Z,4.53
2023-05-19T03:00:12.083Z,5.22
2023-05-19T03:02:39.933Z,5.28
2023-05-19T03:07:35.154Z,5.32
2023-05-19T03:10:04.226Z,4.00
2023-05-19T03:12:31.794Z,5.38
2023-05-19T03:14:58.728Z,6.03
2023-05-19T03:17:25.738Z,5.27
2023-05-19T03:19:52.548Z,4.93
2023-05-19T03:22:21.391Z,4.60
2023-05-19T03:24:51.188Z,5.45
2023-05-19T03:27:18.190Z,7.95
2023-05-19T03:29:44.812Z,4.77
2023-05-19T03:32:11.448Z,5.07
2023-05-19T03:34:38.413Z,5.18
2023-05-19T03:37:05.200Z,5.88
2023-05-19T03:39:31.840Z,5.55
2023-05-19T03:41:58.626Z,4.97
2023-05-19T03:44:25.258Z,5.60
2023-05-19T03:46:51.926Z,5.78
2023-05-19T03:49:18.667Z,5.30
2023-05-19T03:51:45.275Z,5.78
2023-05-19T03:54:11.857Z,5.50
2023-05-19T03:56:43.146Z,5.65
2023-05-19T03:59:13.067Z,5.55
2023-05-19T04:01:39.669Z,5.80
2023-05-19T04:04:06.342Z,6.07
2023-05-19T04:06:35.239Z,5.45
2023-05-19T04:09:02.579Z,5.68
2023-05-19T04:11:29.205Z,5.60
2023-05-19T04:13:55.891Z,5.68
2023-05-19T04:16:22.674Z,5.88
2023-05-19T04:18:49.582Z,5.80
2023-05-19T04:21:16.345Z,5.97
2023-05-19T04:23:43.626Z,5.35
2023-05-19T04:26:10.245Z,6.30
2023-05-19T04:28:40.086Z,6.13
2023-05-19T04:31:11.006Z,5.50
2023-05-19T04:33:38.215Z,5.72
2023-05-19T04:36:08.701Z,5.73
2023-05-19T04:38:36.977Z,5.18
2023-05-19T04:41:04.452Z,5.35
2023-05-19T04:43:31.710Z,5.75
2023-05-19T04:46:02.165Z,5.20
2023-05-19T04:48:31.117Z,5.80
2023-05-19T04:50:58.066Z,4.95
2023-05-19T04:53:26.956Z,5.70
2023-05-19T04:55:53.593Z,5.47
2023-05-19T04:58:20.281Z,5.53
2023-05-19T05:00:46.882Z,4.90
2023-05-19T05:03:15.276Z,5.05
2023-05-19T05:05:42.103Z,4.82
2023-05-19T05:08:12.149Z,5.45
2023-05-19T05:10:38.985Z,5.05
2023-05-19T05:13:06.030Z,4.70
2023-05-19T05:15:33.038Z,4.00
2023-05-19T05:18:00.532Z,4.97
2023-05-19T05:20:27.751Z,4.90
2023-05-19T05:22:54.737Z,14.70
2023-05-19T05:25:21.748Z,5.03
2023-05-19T05:27:48.620Z,5.47
2023-05-19T05:30:15.219Z,4.55
2023-05-19T05:32:42.085Z,5.25
2023-05-19T05:35:09.377Z,5.05
2023-05-19T05:37:36.043Z,3.25
2023-05-19T05:40:02.777Z,4.25
2023-05-19T05:42:29.775Z,3.85
2023-05-19T05:44:56.566Z,3.40
2023-05-19T05:47:23.344Z,3.67
2023-05-19T05:49:52.118Z,3.20
2023-05-19T05:52:22.037Z,3.63
2023-05-19T05:54:48.916Z,3.58
2023-05-19T05:57:15.880Z,3.25
2023-05-19T05:59:43.263Z,3.27
2023-05-19T06:02:09.947Z,3.42
2023-05-19T06:04:36.645Z,3.08
2023-05-19T06:07:03.515Z,3.10
2023-05-19T06:09:30.469Z,3.20
2023-05-19T06:12:00.198Z,3.57
2023-05-19T06:14:29.756Z,3.20
2023-05-19T06:17:12.025Z,3.05
2023-05-19T06:20:01.474Z,2.92
2023-05-19T06:22:28.711Z,3.00
2023-05-19T06:24:55.562Z,3.13
2023-05-19T06:27:22.193Z,3.03
2023-05-19T06:33:39.803Z,2.35
2023-05-19T06:36:08.605Z,2.25
2023-05-19T06:38:35.294Z,2.38
2023-05-19T06:41:01.941Z,1.98
2023-05-19T06:43:29.032Z,2.00
2023-05-19T06:45:55.946Z,2.67
2023-05-19T06:48:22.579Z,2.57
2023-05-19T06:50:49.235Z,2.55
2023-05-19T06:53:17.421Z,1.88
2023-05-19T06:55:50.703Z,1.42
2023-05-19T06:58:24.491Z,1.90
2023-05-19T07:00:51.263Z,2.17
2023-05-19T07:03:19.201Z,2.97
2023-05-19T07:05:46.066Z,2.38
2023-05-19T07:08:12.760Z,2.05
2023-05-19T07:10:39.635Z,2.10
2023-05-19T07:13:06.452Z,1.63
2023-05-19T07:15:33.777Z,1.97
2023-05-19T07:18:00.740Z,1.90
2023-05-19T07:20:27.516Z,1.53
2023-05-19T07:23:02.919Z,1.80
2023-05-19T07:25:30.729Z,3.88
2023-05-19T07:30:25.401Z,3.67
2023-05-19T07:32:52.138Z,3.25
2023-05-19T07:35:20.356Z,1.88
2023-05-19T07:37:49.351Z,1.70
2023-05-19T07:40:16.888Z,1.65
2023-05-19T07:42:44.672Z,5.63
2023-05-19T07:47:38.574Z,1.77
2023-05-19T07:50:05.982Z,1.60
2023-05-19T07:52:32.618Z,2.00
2023-05-19T07:54:59.552Z,5.18
2023-05-19T07:57:26.391Z,16.57
2023-05-19T07:59:53.052Z,2.50
2023-05-19T08:02:19.919Z,1.98
2023-05-19T08:04:46.677Z,1.60
2023-05-19T08:07:13.456Z,2.13
2023-05-19T08:09:40.127Z,1.95
2023-05-19T08:12:06.853Z,1.67
2023-05-19T08:14:35.070Z,1.20
2023-05-19T08:17:02.231Z,2.03
2023-05-19T08:19:28.897Z,2.38
2023-05-19T08:21:56.047Z,1.65
2023-05-19T08:24:22.747Z,1.85
2023-05-19T08:26:49.556Z,1.67
2023-05-19T08:29:16.501Z,1.60
2023-05-19T08:31:43.263Z,1.60
2023-05-19T08:34:09.976Z,1.70
2023-05-19T08:36:36.729Z,1.67
2023-05-19T08:39:03.735Z,1.27
2023-05-19T08:41:32.018Z,2.28
2023-05-19T08:43:58.929Z,1.65
2023-05-19T08:46:26.340Z,2.20
2023-05-19T08:49:02.205Z,1.63
2023-05-19T08:51:36.873Z,1.52
2023-05-19T08:54:14.822Z,1.85
2023-05-19T08:56:44.588Z,2.88
2023-05-19T08:59:15.060Z,1.70
2023-05-19T09:01:44.689Z,1.88
2023-05-19T09:04:13.437Z,1.48
2023-05-19T09:06:41.266Z,1.70
2023-05-19T09:09:08.661Z,1.60
2023-05-19T09:11:37.700Z,1.90
2023-05-19T09:14:07.535Z,2.47
2023-05-19T09:16:34.766Z,2.67
2023-05-19T09:19:01.586Z,1.92
2023-05-19T09:21:31.989Z,1.85
2023-05-19T09:24:04.582Z,2.92
2023-05-19T09:26:39.978Z,2.03
2023-05-19T09:29:17.212Z,2.03
2023-05-19T09:32:06.472Z,1.40
2023-05-19T09:34:33.251Z,1.90
2023-05-19T09:37:00.176Z,1.70
2023-05-19T09:39:26.933Z,1.60
2023-05-19T09:41:54.690Z,2.20
2023-05-19T09:44:21.458Z,1.88
2023-05-19T09:46:52.959Z,2.77
2023-05-19T09:49:30.633Z,4.35
2023-05-19T09:52:03.587Z,2.10
2023-05-19T09:54:32.597Z,1.77
2023-05-19T09:57:01.538Z,1.90
2023-05-19T09:59:32.578Z,1.70
2023-05-19T10:02:00.597Z,2.38
2023-05-19T10:04:29.303Z,2.03
2023-05-19T10:07:00.025Z,1.55
2023-05-19T10:09:28.750Z,1.63
2023-05-19T10:11:57.033Z,1.33
2023-05-19T10:14:28.149Z,1.58
2023-05-19T10:16:57.369Z,1.80
2023-05-19T10:19:25.879Z,1.90
2023-05-19T10:21:53.507Z,1.38
2023-05-19T10:24:21.508Z,1.67
2023-05-19T10:27:12.377Z,1.60
2023-05-19T10:29:45.926Z,1.45
2023-05-19T10:32:16.914Z,1.67
2023-05-19T10:35:11.871Z,1.30
2023-05-19T10:37:53.495Z,1.48
2023-05-19T10:40:37.032Z,1.90
2023-05-19T10:43:25.699Z,1.90
2023-05-19T10:45:54.466Z,1.80
2023-05-19T10:48:22.561Z,2.00
2023-05-19T10:50:53.432Z,1.38
2023-05-19T10:53:22.738Z,2.05
2023-05-19T10:55:56.274Z,1.80
2023-05-19T10:58:44.600Z,1.83
2023-05-19T11:01:15.903Z,1.73
2023-05-19T11:03:54.215Z,2.20
2023-05-19T11:06:21.226Z,2.03
2023-05-19T11:08:53.168Z,2.00
2023-05-19T11:11:19.956Z,1.75
2023-05-19T11:13:55.180Z,1.25
2023-05-19T11:16:34.772Z,1.83
2023-05-19T11:19:01.834Z,1.73
2023-05-19T11:21:49.219Z,2.00
2023-05-19T11:24:35.389Z,2.08
2023-05-19T11:27:35.193Z,1.83
2023-05-19T11:30:11.951Z,1.42
2023-05-19T11:32:39.745Z,1.90
2023-05-19T11:35:07.341Z,2.00
2023-05-19T11:37:34.759Z,1.48
2023-05-19T11:40:07.334Z,1.88
2023-05-19T11:42:35.337Z,1.80
2023-05-19T11:45:03.078Z,1.88
2023-05-19T11:47:38.825Z,1.50
2023-05-19T11:50:14.125Z,1.67
2023-05-19T11:52:45.112Z,1.70
2023-05-19T11:55:19.167Z,1.83
2023-05-19T11:58:12.207Z,2.00
2023-05-19T12:00:40.901Z,1.38
2023-05-19T12:03:09.287Z,1.98
2023-05-19T12:05:44.410Z,2.00
2023-05-19T12:08:12.219Z,2.00
2023-05-19T12:10:39.459Z,1.67
2023-05-19T12:13:09.160Z,1.58
2023-05-19T12:15:36.853Z,1.83
2023-05-19T12:18:04.001Z,1.70
2023-05-19T12:23:03.771Z,1.92
2023-05-19T12:25:31.667Z,1.85
2023-05-19T12:27:59.992Z,1.55
2023-05-19T12:30:29.055Z,2.22
2023-05-19T12:32:59.837Z,2.08
2023-05-19T12:35:38.829Z,1.30
2023-05-19T12:38:06.560Z,2.10
2023-05-19T12:40:37.884Z,2.05
2023-05-19T12:43:05.652Z,1.95
2023-05-19T12:45:37.348Z,1.55
2023-05-19T12:48:06.824Z,1.50
2023-05-19T12:50:34.910Z,1.90
2023-05-19T12:53:02.286Z,2.35
2023-05-19T12:57:58.311Z,1.73
2023-05-19T13:00:28.702Z,1.67
2023-05-19T13:03:06.093Z,1.73
2023-05-19T13:05:35.344Z,1.80
2023-05-19T13:08:06.923Z,1.88
2023-05-19T13:10:35.080Z,1.50
2023-05-19T13:13:02.993Z,1.50
2023-05-19T13:15:35.580Z,1.80
2023-05-19T13:18:04.469Z,1.52
2023-05-19T13:20:31.402Z,1.50
2023-05-19T13:22:58.322Z,1.63
2023-05-19T13:25:25.611Z,1.60
2023-05-19T13:27:52.939Z,1.85
2023-05-19T13:30:20.850Z,1.50
2023-05-19T13:32:48.089Z,1.63
2023-05-19T13:35:18.774Z,1.98
2023-05-19T13:37:45.642Z,1.92
2023-05-19T13:40:14.234Z,1.45
2023-05-19T13:42:40.959Z,1.98
2023-05-19T13:45:08.361Z,1.58
2023-05-19T13:47:35.267Z,1.50
2023-05-19T13:50:04.696Z,1.42
2023-05-19T13:52:31.788Z,2.25
2023-05-19T13:54:58.576Z,1.40
2023-05-19T13:57:28.359Z,1.98
2023-05-19T14:00:02.663Z,1.88
2023-05-19T14:02:31.058Z,1.50
2023-05-19T14:07:25.914Z,1.73
2023-05-19T14:09:53.078Z,1.75
2023-05-19T14:12:33.860Z,2.10
2023-05-19T14:15:13.352Z,2.10
2023-05-19T14:17:40.109Z,1.70
2023-05-19T14:20:07.767Z,1.42
2023-05-19T14:22:34.472Z,1.90
2023-05-19T14:25:02.306Z,2.20
2023-05-19T14:27:29.065Z,1.50
2023-05-19T14:29:55.865Z,1.58
2023-05-19T14:32:27.960Z,2.03
2023-05-19T14:34:56.466Z,1.85
2023-05-19T14:37:23.239Z,1.88
2023-05-19T14:39:51.480Z,1.48
2023-05-19T14:42:18.389Z,1.45
2023-05-19T14:44:45.517Z,2.00
2023-05-19T17:58:41.563Z,1.73
2023-05-19T18:01:09.121Z,2.17
2023-05-19T18:03:36.444Z,1.60
2023-05-19T18:08:31.884Z,1.63
2023-05-19T18:10:58.864Z,1.88
2023-05-19T18:13:26.255Z,1.90
2023-05-19T18:15:53.149Z,1.35
2023-05-19T18:18:20.028Z,1.55
2023-05-19T18:20:46.848Z,1.43
2023-05-19T18:23:14.445Z,1.90
2023-05-19T18:25:41.252Z,1.75
2023-05-19T18:28:08.182Z,1.70
2023-05-19T18:30:35.828Z,1.50
2023-05-19T18:33:05.072Z,1.77
2023-05-19T18:35:32.020Z,1.73
2023-05-19T18:37:58.760Z,1.60
2023-05-19T18:40:25.589Z,1.40
2023-05-19T18:42:52.309Z,6.63
2023-05-19T18:45:19.222Z,2.27
2023-05-19T18:47:46.566Z,1.97
2023-05-19T18:50:13.512Z,4.18
2023-05-19T18:52:40.644Z,2.37
2023-05-19T18:55:07.816Z,1.77
2023-05-19T18:57:34.618Z,1.95
2023-05-19T19:00:01.829Z,2.07
2023-05-19T19:02:31.274Z,2.10
2023-05-19T19:04:58.152Z,2.70
2023-05-19T19:07:27.220Z,3.20
2023-05-19T19:09:54.653Z,2.53
2023-05-19T19:12:21.485Z,1.70
2023-05-19T19:14:48.367Z,2.73
2023-05-19T19:17:15.277Z,2.17
2023-05-19T19:19:42.135Z,1.80
2023-05-19T19:22:08.874Z,2.40
2023-05-19T19:24:36.053Z,1.70
2023-05-19T19:27:02.875Z,2.42
2023-05-19T19:29:30.479Z,2.07
2023-05-19T19:34:25.205Z,1.35
2023-05-19T19:36:52.142Z,2.40
2023-05-19T19:39:18.905Z,1.60
2023-05-19T19:41:45.856Z,1.98
2023-05-19T19:44:13.696Z,3.20
2023-05-19T19:46:40.634Z,3.25
2023-05-19T19:49:07.411Z,2.37
2023-05-19T19:51:34.358Z,1.73
2023-05-19T19:54:10.704Z,2.60
2023-05-19T19:56:39.117Z,1.85
2023-05-19T19:59:05.894Z,2.33
2023-05-19T20:01:33.900Z,1.85
2023-05-19T20:04:01.124Z,2.78
2023-05-19T20:06:28.161Z,6.20
2023-05-19T20:08:55.011Z,1.90
2023-05-19T20:11:23.944Z,1.80
2023-05-19T20:13:50.786Z,1.50
2023-05-19T20:16:17.468Z,1.97
2023-05-19T20:18:44.895Z,1.80
2023-05-19T20:21:11.749Z,1.65
2023-05-19T20:23:39.832Z,1.57
2023-05-19T20:26:12.370Z,1.98
2023-05-19T20:28:39.958Z,1.90
2023-05-19T20:31:07.022Z,2.60
2023-05-19T20:33:33.708Z,1.97
2023-05-19T20:36:04.908Z,1.77
2023-05-19T20:38:31.606Z,1.85
2023-05-19T20:40:58.240Z,2.15
2023-05-19T20:43:25.009Z,1.70
2023-05-19T20:45:51.684Z,2.17
2023-05-19T20:48:19.451Z,2.08
2023-05-19T20:53:13.263Z,2.30
2023-05-19T20:55:41.668Z,2.40
2023-05-19T20:58:08.389Z,2.20
2023-05-19T21:00:37.972Z,2.40
2023-05-19T21:03:04.950Z,2.40
2023-05-19T21:05:32.908Z,2.28
2023-05-19T21:07:59.648Z,2.08
2023-05-19T21:10:26.715Z,2.30
2023-05-19T21:12:53.603Z,2.20
2023-05-19T21:15:20.811Z,1.90
2023-05-19T21:17:47.755Z,2.00
2023-05-19T21:20:14.510Z,2.20
2023-05-19T21:22:41.300Z,1.80
2023-05-19T21:25:08.403Z,2.25
2023-05-19T21:27:36.448Z,2.30
2023-05-19T21:30:03.420Z,2.00
2023-05-19T21:32:30.580Z,1.80
2023-05-19T21:35:11.240Z,1.70
2023-05-19T21:37:57.756Z,1.90
2023-05-19T21:40:36.452Z,1.57
2023-05-19T21:43:06.959Z,1.50
2023-05-19T21:45:33.765Z,1.67
2023-05-19T21:48:00.621Z,2.08
2023-05-19T21:50:27.496Z,1.50
2023-05-19T21:52:54.153Z,2.10
2023-05-19T21:55:22.190Z,1.90
2023-05-19T21:57:48.970Z,1.95
2023-05-19T22:00:15.819Z,1.73
2023-05-19T22:02:42.702Z,2.47
2023-05-19T22:05:09.820Z,2.10
2023-05-19T22:07:36.653Z,1.77
2023-05-19T22:10:03.625Z,1.80
2023-05-19T22:12:32.069Z,2.50
2023-05-19T22:14:58.958Z,2.00
2023-05-19T22:17:25.673Z,1.90
2023-05-19T22:19:52.478Z,1.98
2023-05-19T22:22:19.116Z,2.05
2023-05-19T22:24:45.854Z,1.70
2023-05-19T22:27:12.565Z,1.70
2023-05-19T22:29:39.674Z,1.70
2023-05-19T22:32:07.913Z,1.45
2023-05-19T22:34:34.743Z,1.58
2023-05-19T22:37:02.048Z,1.53
2023-05-19T22:39:28.839Z,1.83
2023-05-19T22:41:55.665Z,2.00
2023-05-19T22:44:22.371Z,1.70
2023-05-19T22:46:49.033Z,1.83
2023-05-19T22:49:15.750Z,1.70
2023-05-19T22:51:42.453Z,1.67
2023-05-19T22:54:09.776Z,1.80
2023-05-19T22:56:36.583Z,1.67
2023-05-19T22:59:03.361Z,2.20
2023-05-19T23:01:30.204Z,1.63
2023-05-19T23:03:56.924Z,1.55
2023-05-19T23:06:23.772Z,2.00
2023-05-19T23:09:01.660Z,1.75
2023-05-19T23:11:28.366Z,1.52
2023-05-19T23:13:55.043Z,1.60
2023-05-19T23:16:22.249Z,1.40
2023-05-19T23:18:49.006Z,1.70
2023-05-19T23:21:15.704Z,1.50
2023-05-19T23:23:42.431Z,1.40
2023-05-19T23:26:09.350Z,1.38
2023-05-19T23:28:36.119Z,1.70
2023-05-19T23:31:02.845Z,1.65
2023-05-19T23:33:29.623Z,1.60
2023-05-19T23:35:56.535Z,2.00
2023-05-19T23:38:23.269Z,1.55
2023-05-19T23:40:50.018Z,1.50
2023-05-19T23:43:16.705Z,1.55
2023-05-19T23:45:43.524Z,1.60
2023-05-19T23:48:10.276Z,1.40
2023-05-19T23:50:36.990Z,1.13
2023-05-19T23:53:06.054Z,1.40
2023-05-19T23:55:32.841Z,1.42
